Huntingburg (HNB)

 

Airport Diagram
No Airport Diagram Available
Current Weather/Forecast (VFR Conditions)
METAR KHNB 071256Z AUTO 21004KT 10SM CLR 09/07 A3011 RMK AO2 SLP198 T00940072
TAF KHNB 071120Z 0712/0812 28006KT P6SM FEW040 FM071500 28010G18KT P6SM SCT070 PROB30 0722/0801 4SM -SHRA OVC050 FM080200 32005KT P6SM BKN100

Airport Information

All Charts
General
Chart Name View
TAKEOFF MINIMUMS
ALTERNATE MINIMUMS

Approaches
Chart Name Download
RNAV (GPS) RWY 09
RNAV (GPS) RWY 27


Airport Statistics
Departures Arrivals Local
All Collected Stats since June 2016: 7 3 0
2021 Stats: 1 0 0
May Stats: 0 0 0

Inbound Traffic (Arrivals) - 0

No inbound traffic.


Outbound Traffic (Departures) - 0

No outbound traffic.


Local Traffic (Pattern) - 0

No local traffic.